Lakeville, MN

7:43 PM CST on March 06, 2015 (GMT -0600)
Stanton | Change Station
CLOSE
Current Station
Airport
Location: Stanton,
Elevation: 919 ft
Nearby Weather Stations

Elev 919 ft 44.47 °N, 93.01 °W | Updated 9 minutes ago

Partly Cloudy
Partly Cloudy
31 °F
Feels Like 27 °F
N
5
Wind Variable Wind from West

Today
High -- | Low -- °F
--% Chance of Precip.
Yesterday
High -- | Low -- °F
Precip. -- in
6:42 AM 6:07 PM
Full, 98% visible
Pressure 30.06 in
Visibility 10.0 miles
Clouds Clear
Windchill 27 °F
Dew Point 22 °F
Humidity 68%
Rainfall 0.02 in
Snow Depth Not available.
UV 0 out of 12
Pollen .20 out of 12
Air Quality Not available.
Flu Activity Not available.
METAR KSYN 070134Z AUTO 26004KT 10SM CLR 00/M06 A3006 RMK AO2 T10041056

More Conditions Fewer Conditions

Pressure 30.06 in
Visibility 10.0 miles
Clouds Clear
Windchill 27 °F
Dew Point 22 °F
Humidity 68%
Rainfall 0.02 in
Snow Depth Not available.
UV 0 out of 12
Pollen .20 out of 12
Air Quality Not available.
Flu Activity Not available.
METAR KSYN 070134Z AUTO 26004KT 10SM CLR 00/M06 A3006 RMK AO2 T10041056

More Conditions Fewer Conditions

10-Day Weather Forecast

Almanac

Astronomy

Mar. 06, 2015 Rise Set
Actual Time
Civil Twilight
Nautical Twilight
Astronomical Twilight
Moon
Length of Visible Light
Length of Day
Tomorrow will be .
, % of the Moon is Illuminated

Today's Extremes

State Highs State Lows

Community

WunderPhotos

Upload Photos

1,803,494 photos uploaded!

WunderBlogs® & News

Nearby

Air Quality

  Air Quality AQ Index Pollutant
Not available.

Snow Depth

Station Depth Elevation

Earthquake Activity

City Distance Mag. Time & Date
Minimum magnitude displayed is 2.5.

Coastal Water Temperatures

Place Temperature

Nearby Weather Stations